sensor_id;sensor_type;location;lat;lon;timestamp;pressure;altitude;pressure_sealevel;temperature;humidity
73306;BME280;61530;51.158;0.880;2023-12-28T00:00:07;1003.48;;;10.375;100
73306;BME280;61530;51.158;0.880;2023-12-28T00:01:09;1003.43;;;10.4375;100
73306;BME280;61530;51.158;0.880;2023-12-28T00:02:12;1003.48;;;10.4375;100
73306;BME280;61530;51.158;0.880;2023-12-28T00:03:15;1003.64;;;10.4375;100
73306;BME280;61530;51.158;0.880;2023-12-28T00:04:18;1003.49;;;10.5;100
73306;BME280;61530;51.158;0.880;2023-12-28T00:05:21;1003.46;;;10.4375;100
73306;BME280;61530;51.158;0.880;2023-12-28T00:06:24;1003.53;;;10.5625;100
73306;BME280;61530;51.158;0.880;2023-12-28T00:07:28;1003.55;;;10.5;100
73306;BME280;61530;51.158;0.880;2023-12-28T00:08:30;1003.54;;;10.5;100
73306;BME280;61530;51.158;0.880;2023-12-28T00:09:33;1003.57;;;10.4375;100
73306;BME280;61530;51.158;0.880;2023-12-28T00:10:36;1003.65;;;10.5625;100
73306;BME280;61530;51.158;0.880;2023-12-28T00:11:39;1003.65;;;10.4375;100
73306;BME280;61530;51.158;0.880;2023-12-28T00:12:43;1003.67;;;10.5;100
73306;BME280;61530;51.158;0.880;2023-12-28T00:13:46;1003.58;;;10.4375;100
73306;BME280;61530;51.158;0.880;2023-12-28T00:14:49;1003.61;;;10.375;100
73306;BME280;61530;51.158;0.880;2023-12-28T00:15:52;1003.5;;;10.4375;100
73306;BME280;61530;51.158;0.880;2023-12-28T00:16:55;1003.57;;;10.5625;100
73306;BME280;61530;51.158;0.880;2023-12-28T00:17:58;1003.55;;;10.5;100
73306;BME280;61530;51.158;0.880;2023-12-28T00:19:00;1003.57;;;10.5625;100
73306;BME280;61530;51.158;0.880;2023-12-28T00:20:05;1003.56;;;10.5625;100
73306;BME280;61530;51.158;0.880;2023-12-28T00:21:07;1003.7;;;10.5;100
73306;BME280;61530;51.158;0.880;2023-12-28T00:22:10;1003.68;;;10.5625;100
73306;BME280;61530;51.158;0.880;2023-12-28T00:23:13;1003.66;;;10.5625;100
73306;BME280;61530;51.158;0.880;2023-12-28T00:24:19;1003.66;;;10.625;100
73306;BME280;61530;51.158;0.880;2023-12-28T00:25:19;1003.72;;;10.625;100
73306;BME280;61530;51.158;0.880;2023-12-28T00:26:22;1003.61;;;10.625;100
73306;BME280;61530;51.158;0.880;2023-12-28T00:27:25;1003.67;;;10.625;100
73306;BME280;61530;51.158;0.880;2023-12-28T00:28:28;1003.72;;;10.6875;100
73306;BME280;61530;51.158;0.880;2023-12-28T00:29:31;1003.69;;;10.6875;100
73306;BME280;61530;51.158;0.880;2023-12-28T00:30:34;1003.73;;;10.625;100
73306;BME280;61530;51.158;0.880;2023-12-28T00:31:37;1003.71;;;10.5625;100
73306;BME280;61530;51.158;0.880;2023-12-28T00:32:40;1003.62;;;10.625;100
73306;BME280;61530;51.158;0.880;2023-12-28T00:33:43;1003.6;;;10.5;100
73306;BME280;61530;51.158;0.880;2023-12-28T00:34:46;1003.65;;;10.5625;100
73306;BME280;61530;51.158;0.880;2023-12-28T00:35:49;1003.64;;;10.5625;100
73306;BME280;61530;51.158;0.880;2023-12-28T00:36:53;1003.67;;;10.5625;100
73306;BME280;61530;51.158;0.880;2023-12-28T00:37:56;1003.65;;;10.5625;100
73306;BME280;61530;51.158;0.880;2023-12-28T00:38:59;1003.68;;;10.625;100
73306;BME280;61530;51.158;0.880;2023-12-28T00:40:02;1003.69;;;10.625;100
73306;BME280;61530;51.158;0.880;2023-12-28T00:41:05;1003.67;;;10.625;100
73306;BME280;61530;51.158;0.880;2023-12-28T00:42:08;1003.76;;;10.6875;100
73306;BME280;61530;51.158;0.880;2023-12-28T00:43:11;1003.68;;;10.6875;100
73306;BME280;61530;51.158;0.880;2023-12-28T00:44:14;1003.72;;;10.6875;100
73306;BME280;61530;51.158;0.880;2023-12-28T00:45:17;1003.6;;;10.625;100
73306;BME280;61530;51.158;0.880;2023-12-28T00:46:20;1003.64;;;10.6875;100
73306;BME280;61530;51.158;0.880;2023-12-28T00:47:23;1003.65;;;10.6875;100
73306;BME280;61530;51.158;0.880;2023-12-28T00:48:26;1003.66;;;10.6875;100
73306;BME280;61530;51.158;0.880;2023-12-28T00:49:29;1003.72;;;10.6875;100
73306;BME280;61530;51.158;0.880;2023-12-28T00:50:32;1003.61;;;10.625;100
73306;BME280;61530;51.158;0.880;2023-12-28T00:51:35;1003.66;;;10.625;100
73306;BME280;61530;51.158;0.880;2023-12-28T00:52:38;1003.66;;;10.6875;100
73306;BME280;61530;51.158;0.880;2023-12-28T00:53:41;1003.66;;;10.5625;100
73306;BME280;61530;51.158;0.880;2023-12-28T00:54:44;1003.63;;;10.5625;100
73306;BME280;61530;51.158;0.880;2023-12-28T00:55:48;1003.68;;;10.625;100
73306;BME280;61530;51.158;0.880;2023-12-28T00:56:51;1003.57;;;10.5625;100
73306;BME280;61530;51.158;0.880;2023-12-28T00:57:53;1003.62;;;10.5625;100
73306;BME280;61530;51.158;0.880;2023-12-28T00:58:56;1003.59;;;10.625;100
73306;BME280;61530;51.158;0.880;2023-12-28T00:59:59;1003.54;;;10.5625;100
73306;BME280;61530;51.158;0.880;2023-12-28T01:01:02;1003.56;;;10.5625;100
73306;BME280;61530;51.158;0.880;2023-12-28T01:02:05;1003.51;;;10.5;100
73306;BME280;61530;51.158;0.880;2023-12-28T01:03:08;1003.54;;;10.5625;100
73306;BME280;61530;51.158;0.880;2023-12-28T01:04:11;1003.53;;;10.625;100
73306;BME280;61530;51.158;0.880;2023-12-28T01:05:14;1003.51;;;10.625;100
73306;BME280;61530;51.158;0.880;2023-12-28T01:06:17;1003.48;;;10.625;100
73306;BME280;61530;51.158;0.880;2023-12-28T01:07:20;1003.52;;;10.5625;100
73306;BME280;61530;51.158;0.880;2023-12-28T01:08:23;1003.45;;;10.5625;100
73306;BME280;61530;51.158;0.880;2023-12-28T01:09:26;1003.37;;;10.5625;100
73306;BME280;61530;51.158;0.880;2023-12-28T01:10:29;1003.47;;;10.6875;100
73306;BME280;61530;51.158;0.880;2023-12-28T01:11:32;1003.39;;;10.6875;100
73306;BME280;61530;51.158;0.880;2023-12-28T01:12:35;1003.37;;;10.6875;100
73306;BME280;61530;51.158;0.880;2023-12-28T01:13:38;1003.35;;;10.5625;100
73306;BME280;61530;51.158;0.880;2023-12-28T01:14:41;1003.33;;;10.5625;100
73306;BME280;61530;51.158;0.880;2023-12-28T01:15:44;1003.25;;;10.5625;100
73306;BME280;61530;51.158;0.880;2023-12-28T01:16:47;1003.36;;;10.625;100
73306;BME280;61530;51.158;0.880;2023-12-28T01:17:50;1003.4;;;10.625;100
73306;BME280;61530;51.158;0.880;2023-12-28T01:18:54;1003.28;;;10.6875;100
73306;BME280;61530;51.158;0.880;2023-12-28T01:19:57;1003.43;;;10.625;100
73306;BME280;61530;51.158;0.880;2023-12-28T01:21:00;1003.43;;;10.625;100
73306;BME280;61530;51.158;0.880;2023-12-28T01:22:00;1003.4;;;10.6875;100
73306;BME280;61530;51.158;0.880;2023-12-28T01:23:03;1003.54;;;10.625;100
73306;BME280;61530;51.158;0.880;2023-12-28T01:24:06;1003.37;;;10.625;100
73306;BME280;61530;51.158;0.880;2023-12-28T01:25:09;1003.31;;;10.6875;100
73306;BME280;61530;51.158;0.880;2023-12-28T01:26:13;1003.35;;;10.6875;100
73306;BME280;61530;51.158;0.880;2023-12-28T01:27:15;1003.39;;;10.625;100
73306;BME280;61530;51.158;0.880;2023-12-28T01:28:18;1003.36;;;10.75;100
73306;BME280;61530;51.158;0.880;2023-12-28T01:29:21;1003.49;;;10.8125;100
73306;BME280;61530;51.158;0.880;2023-12-28T01:30:24;1003.39;;;10.75;100
73306;BME280;61530;51.158;0.880;2023-12-28T01:31:27;1003.44;;;10.75;100
73306;BME280;61530;51.158;0.880;2023-12-28T01:32:30;1003.45;;;10.5625;100
73306;BME280;61530;51.158;0.880;2023-12-28T01:33:33;1003.39;;;10.6875;100
73306;BME280;61530;51.158;0.880;2023-12-28T01:34:36;1003.39;;;10.75;100
73306;BME280;61530;51.158;0.880;2023-12-28T01:35:39;1003.43;;;10.6875;100
73306;BME280;61530;51.158;0.880;2023-12-28T01:36:42;1003.38;;;10.75;100
73306;BME280;61530;51.158;0.880;2023-12-28T01:37:45;1003.42;;;10.6875;100
73306;BME280;61530;51.158;0.880;2023-12-28T01:38:48;1003.41;;;10.6875;100
73306;BME280;61530;51.158;0.880;2023-12-28T01:39:51;1003.41;;;10.75;100
73306;BME280;61530;51.158;0.880;2023-12-28T01:40:54;1003.42;;;10.75;100
73306;BME280;61530;51.158;0.880;2023-12-28T01:41:57;1003.32;;;10.6875;100
73306;BME280;61530;51.158;0.880;2023-12-28T01:43:00;1003.43;;;10.6875;100
73306;BME280;61530;51.158;0.880;2023-12-28T01:44:03;1003.4;;;10.625;100
73306;BME280;61530;51.158;0.880;2023-12-28T01:45:06;1003.35;;;10.6875;100
73306;BME280;61530;51.158;0.880;2023-12-28T01:46:12;1003.38;;;10.6875;100
73306;BME280;61530;51.158;0.880;2023-12-28T01:47:12;1003.46;;;10.6875;100
73306;BME280;61530;51.158;0.880;2023-12-28T01:48:15;1003.47;;;10.6875;100
73306;BME280;61530;51.158;0.880;2023-12-28T01:49:18;1003.4;;;10.6875;100
73306;BME280;61530;51.158;0.880;2023-12-28T01:50:21;1003.37;;;10.625;100
73306;BME280;61530;51.158;0.880;2023-12-28T01:51:24;1003.5;;;10.625;100
73306;BME280;61530;51.158;0.880;2023-12-28T01:52:27;1003.41;;;10.6875;100
73306;BME280;61530;51.158;0.880;2023-12-28T01:53:30;1003.41;;;10.625;100
73306;BME280;61530;51.158;0.880;2023-12-28T01:54:34;1003.4;;;10.75;100
73306;BME280;61530;51.158;0.880;2023-12-28T01:55:36;1003.32;;;10.8125;100
73306;BME280;61530;51.158;0.880;2023-12-28T01:56:39;1003.45;;;10.8125;100
73306;BME280;61530;51.158;0.880;2023-12-28T01:57:42;1003.41;;;10.6875;100
73306;BME280;61530;51.158;0.880;2023-12-28T01:58:43;1003.47;;;10.6875;100
73306;BME280;61530;51.158;0.880;2023-12-28T01:59:45;1003.45;;;10.75;100
73306;BME280;61530;51.158;0.880;2023-12-28T02:00:49;1003.5;;;10.75;100
73306;BME280;61530;51.158;0.880;2023-12-28T02:01:51;1003.44;;;10.75;100
73306;BME280;61530;51.158;0.880;2023-12-28T02:02:54;1003.52;;;10.8125;100
73306;BME280;61530;51.158;0.880;2023-12-28T02:03:57;1003.52;;;10.75;100
73306;BME280;61530;51.158;0.880;2023-12-28T02:05:00;1003.43;;;10.8125;100
73306;BME280;61530;51.158;0.880;2023-12-28T02:06:03;1003.47;;;10.75;100
73306;BME280;61530;51.158;0.880;2023-12-28T02:07:07;1003.51;;;10.75;100
73306;BME280;61530;51.158;0.880;2023-12-28T02:08:09;1003.44;;;10.8125;100
73306;BME280;61530;51.158;0.880;2023-12-28T02:09:12;1003.38;;;10.75;100
73306;BME280;61530;51.158;0.880;2023-12-28T02:10:15;1003.52;;;10.6875;100
73306;BME280;61530;51.158;0.880;2023-12-28T02:11:19;1003.57;;;10.6875;100
73306;BME280;61530;51.158;0.880;2023-12-28T02:12:21;1003.62;;;10.6875;100
73306;BME280;61530;51.158;0.880;2023-12-28T02:13:24;1003.47;;;10.75;100
73306;BME280;61530;51.158;0.880;2023-12-28T02:14:27;1003.52;;;10.75;100
73306;BME280;61530;51.158;0.880;2023-12-28T02:15:30;1003.59;;;10.75;100
73306;BME280;61530;51.158;0.880;2023-12-28T02:16:39;1003.63;;;10.8125;100
73306;BME280;61530;51.158;0.880;2023-12-28T02:17:38;1003.59;;;10.875;100
73306;BME280;61530;51.158;0.880;2023-12-28T02:18:43;1003.59;;;10.8125;100
73306;BME280;61530;51.158;0.880;2023-12-28T02:19:47;1003.63;;;10.75;100
73306;BME280;61530;51.158;0.880;2023-12-28T02:20:46;1003.58;;;10.8125;100
73306;BME280;61530;51.158;0.880;2023-12-28T02:21:50;1003.56;;;10.8125;100
73306;BME280;61530;51.158;0.880;2023-12-28T02:22:52;1003.5;;;10.75;100
73306;BME280;61530;51.158;0.880;2023-12-28T02:23:55;1003.56;;;10.8125;100
73306;BME280;61530;51.158;0.880;2023-12-28T02:25:03;1003.54;;;10.8125;100
73306;BME280;61530;51.158;0.880;2023-12-28T02:26:01;1003.63;;;10.6875;100
73306;BME280;61530;51.158;0.880;2023-12-28T02:27:04;1003.54;;;10.75;100
73306;BME280;61530;51.158;0.880;2023-12-28T02:28:07;1003.55;;;10.75;100
73306;BME280;61530;51.158;0.880;2023-12-28T02:29:10;1003.42;;;10.6875;100
73306;BME280;61530;51.158;0.880;2023-12-28T02:30:15;1003.62;;;10.75;100
73306;BME280;61530;51.158;0.880;2023-12-28T02:31:21;1003.44;;;10.6875;100
73306;BME280;61530;51.158;0.880;2023-12-28T02:32:23;1003.42;;;10.75;100
73306;BME280;61530;51.158;0.880;2023-12-28T02:33:29;1003.39;;;10.75;100
73306;BME280;61530;51.158;0.880;2023-12-28T02:34:29;1003.6;;;10.8125;100
73306;BME280;61530;51.158;0.880;2023-12-28T02:35:32;1003.36;;;10.8125;100
73306;BME280;61530;51.158;0.880;2023-12-28T02:36:34;1003.54;;;10.875;100
73306;BME280;61530;51.158;0.880;2023-12-28T02:37:34;1003.45;;;10.8125;100
73306;BME280;61530;51.158;0.880;2023-12-28T02:38:38;1003.53;;;10.8125;100
73306;BME280;61530;51.158;0.880;2023-12-28T02:39:41;1003.64;;;10.8125;100
73306;BME280;61530;51.158;0.880;2023-12-28T02:40:44;1003.51;;;10.8125;100
73306;BME280;61530;51.158;0.880;2023-12-28T02:41:46;1003.57;;;10.875;100
73306;BME280;61530;51.158;0.880;2023-12-28T02:42:51;1003.47;;;10.8125;100
73306;BME280;61530;51.158;0.880;2023-12-28T02:43:54;1003.56;;;10.75;100
73306;BME280;61530;51.158;0.880;2023-12-28T02:44:57;1003.45;;;10.75;100
73306;BME280;61530;51.158;0.880;2023-12-28T02:46:00;1003.57;;;10.6875;100
73306;BME280;61530;51.158;0.880;2023-12-28T02:47:03;1003.49;;;10.75;100
73306;BME280;61530;51.158;0.880;2023-12-28T02:48:06;1003.52;;;10.8125;100
73306;BME280;61530;51.158;0.880;2023-12-28T02:49:09;1003.52;;;10.8125;100
73306;BME280;61530;51.158;0.880;2023-12-28T02:50:12;1003.52;;;10.9375;100
73306;BME280;61530;51.158;0.880;2023-12-28T02:51:15;1003.5;;;10.8125;100
73306;BME280;61530;51.158;0.880;2023-12-28T02:52:18;1003.45;;;10.8125;100
73306;BME280;61530;51.158;0.880;2023-12-28T02:53:21;1003.44;;;10.75;100
73306;BME280;61530;51.158;0.880;2023-12-28T02:54:24;1003.41;;;10.8125;100
73306;BME280;61530;51.158;0.880;2023-12-28T02:55:27;1003.49;;;10.75;100
73306;BME280;61530;51.158;0.880;2023-12-28T02:56:30;1003.46;;;10.75;100
73306;BME280;61530;51.158;0.880;2023-12-28T02:57:33;1003.44;;;10.75;100
73306;BME280;61530;51.158;0.880;2023-12-28T02:58:36;1003.39;;;10.75;100
73306;BME280;61530;51.158;0.880;2023-12-28T02:59:39;1003.38;;;10.6875;100
73306;BME280;61530;51.158;0.880;2023-12-28T03:00:42;1003.36;;;10.75;100
73306;BME280;61530;51.158;0.880;2023-12-28T03:01:46;1003.38;;;10.75;100
73306;BME280;61530;51.158;0.880;2023-12-28T03:02:50;1003.42;;;10.75;100
73306;BME280;61530;51.158;0.880;2023-12-28T03:03:52;1003.46;;;10.75;100
73306;BME280;61530;51.158;0.880;2023-12-28T03:04:56;1003.38;;;10.75;100
73306;BME280;61530;51.158;0.880;2023-12-28T03:05:59;1003.25;;;10.75;100
73306;BME280;61530;51.158;0.880;2023-12-28T03:07:02;1003.39;;;10.6875;100
73306;BME280;61530;51.158;0.880;2023-12-28T03:08:05;1003.57;;;10.6875;100
73306;BME280;61530;51.158;0.880;2023-12-28T03:09:09;1003.45;;;10.6875;100
73306;BME280;61530;51.158;0.880;2023-12-28T03:10:12;1003.38;;;10.75;100
73306;BME280;61530;51.158;0.880;2023-12-28T03:11:15;1003.39;;;10.75;100
73306;BME280;61530;51.158;0.880;2023-12-28T03:12:18;1003.35;;;10.75;100
73306;BME280;61530;51.158;0.880;2023-12-28T03:13:21;1003.43;;;10.6875;100
73306;BME280;61530;51.158;0.880;2023-12-28T03:14:24;1003.43;;;10.75;100
73306;BME280;61530;51.158;0.880;2023-12-28T03:15:29;1003.46;;;10.875;100
73306;BME280;61530;51.158;0.880;2023-12-28T03:16:32;1003.52;;;10.8125;100
73306;BME280;61530;51.158;0.880;2023-12-28T03:17:34;1003.43;;;10.8125;100
73306;BME280;61530;51.158;0.880;2023-12-28T03:18:37;1003.41;;;10.9375;100
73306;BME280;61530;51.158;0.880;2023-12-28T03:19:41;1003.51;;;10.875;100
73306;BME280;61530;51.158;0.880;2023-12-28T03:20:44;1003.39;;;10.8125;100
73306;BME280;61530;51.158;0.880;2023-12-28T03:21:46;1003.47;;;10.875;100
73306;BME280;61530;51.158;0.880;2023-12-28T03:22:50;1003.61;;;10.875;100
73306;BME280;61530;51.158;0.880;2023-12-28T03:23:53;1003.63;;;10.875;100
73306;BME280;61530;51.158;0.880;2023-12-28T03:24:56;1003.67;;;10.875;100
73306;BME280;61530;51.158;0.880;2023-12-28T03:26:00;1003.63;;;10.9375;100
73306;BME280;61530;51.158;0.880;2023-12-28T03:27:02;1003.62;;;10.9375;100
73306;BME280;61530;51.158;0.880;2023-12-28T03:28:05;1003.61;;;10.875;100
73306;BME280;61530;51.158;0.880;2023-12-28T03:29:08;1003.7;;;10.875;100
73306;BME280;61530;51.158;0.880;2023-12-28T03:30:11;1003.65;;;10.875;100
73306;BME280;61530;51.158;0.880;2023-12-28T03:31:14;1003.66;;;10.9375;100
73306;BME280;61530;51.158;0.880;2023-12-28T03:32:16;1003.64;;;10.875;100
73306;BME280;61530;51.158;0.880;2023-12-28T03:33:20;1003.74;;;10.9375;100
73306;BME280;61530;51.158;0.880;2023-12-28T03:34:23;1003.74;;;10.9375;100
73306;BME280;61530;51.158;0.880;2023-12-28T03:35:25;1003.7;;;10.875;100
73306;BME280;61530;51.158;0.880;2023-12-28T03:36:29;1003.68;;;10.875;100
73306;BME280;61530;51.158;0.880;2023-12-28T03:37:31;1003.77;;;10.9375;100
73306;BME280;61530;51.158;0.880;2023-12-28T03:38:34;1003.76;;;10.9375;100
73306;BME280;61530;51.158;0.880;2023-12-28T03:39:38;1003.94;;;10.875;100
73306;BME280;61530;51.158;0.880;2023-12-28T03:40:41;1003.71;;;10.8125;100
73306;BME280;61530;51.158;0.880;2023-12-28T03:41:44;1003.75;;;10.75;100
73306;BME280;61530;51.158;0.880;2023-12-28T03:42:46;1003.77;;;10.75;100
73306;BME280;61530;51.158;0.880;2023-12-28T03:43:50;1003.81;;;10.875;100
73306;BME280;61530;51.158;0.880;2023-12-28T03:44:53;1003.63;;;10.8125;100
73306;BME280;61530;51.158;0.880;2023-12-28T03:45:56;1003.71;;;10.9375;100
73306;BME280;61530;51.158;0.880;2023-12-28T03:46:59;1003.68;;;11.0;100
73306;BME280;61530;51.158;0.880;2023-12-28T03:48:03;1003.76;;;10.875;100
73306;BME280;61530;51.158;0.880;2023-12-28T03:49:05;1003.65;;;10.875;100
73306;BME280;61530;51.158;0.880;2023-12-28T03:50:09;1003.65;;;10.875;100
73306;BME280;61530;51.158;0.880;2023-12-28T03:51:14;1003.67;;;10.9375;100
73306;BME280;61530;51.158;0.880;2023-12-28T03:52:16;1003.61;;;10.9375;100
73306;BME280;61530;51.158;0.880;2023-12-28T03:53:18;1003.69;;;10.9375;100
73306;BME280;61530;51.158;0.880;2023-12-28T03:54:22;1003.67;;;10.9375;100
73306;BME280;61530;51.158;0.880;2023-12-28T03:55:25;1003.68;;;10.9375;100
73306;BME280;61530;51.158;0.880;2023-12-28T03:56:28;1003.6;;;10.9375;100
73306;BME280;61530;51.158;0.880;2023-12-28T03:57:31;1003.65;;;10.9375;100
73306;BME280;61530;51.158;0.880;2023-12-28T03:58:36;1003.66;;;10.9375;100
73306;BME280;61530;51.158;0.880;2023-12-28T03:59:40;1003.61;;;10.8125;100
73306;BME280;61530;51.158;0.880;2023-12-28T04:00:42;1003.6;;;10.875;100
73306;BME280;61530;51.158;0.880;2023-12-28T04:01:45;1003.66;;;10.6875;100
73306;BME280;61530;51.158;0.880;2023-12-28T04:02:48;1003.64;;;10.75;100
73306;BME280;61530;51.158;0.880;2023-12-28T04:03:51;1003.76;;;10.875;100
73306;BME280;61530;51.158;0.880;2023-12-28T04:04:54;1003.64;;;10.875;100
73306;BME280;61530;51.158;0.880;2023-12-28T04:05:57;1003.68;;;10.9375;100
73306;BME280;61530;51.158;0.880;2023-12-28T04:07:00;1003.57;;;10.875;100
73306;BME280;61530;51.158;0.880;2023-12-28T04:08:04;1003.71;;;10.875;100
73306;BME280;61530;51.158;0.880;2023-12-28T04:09:07;1003.68;;;10.9375;100
73306;BME280;61530;51.158;0.880;2023-12-28T04:10:10;1003.65;;;10.875;100
73306;BME280;61530;51.158;0.880;2023-12-28T04:11:13;1003.69;;;10.875;100
73306;BME280;61530;51.158;0.880;2023-12-28T04:12:16;1003.82;;;10.875;100
73306;BME280;61530;51.158;0.880;2023-12-28T04:13:19;1003.68;;;10.8125;100
73306;BME280;61530;51.158;0.880;2023-12-28T04:14:22;1003.76;;;10.9375;100
73306;BME280;61530;51.158;0.880;2023-12-28T04:15:26;1003.76;;;10.8125;100
73306;BME280;61530;51.158;0.880;2023-12-28T04:16:28;1003.85;;;10.8125;100
73306;BME280;61530;51.158;0.880;2023-12-28T04:17:31;1003.79;;;10.8125;100
73306;BME280;61530;51.158;0.880;2023-12-28T04:18:34;1003.89;;;10.75;100
73306;BME280;61530;51.158;0.880;2023-12-28T04:19:37;1003.87;;;10.8125;100
73306;BME280;61530;51.158;0.880;2023-12-28T04:20:42;1003.95;;;10.8125;100
73306;BME280;61530;51.158;0.880;2023-12-28T04:21:43;1003.86;;;10.8125;100
73306;BME280;61530;51.158;0.880;2023-12-28T04:22:46;1003.84;;;10.8125;100
73306;BME280;61530;51.158;0.880;2023-12-28T04:23:49;1003.87;;;10.8125;100
73306;BME280;61530;51.158;0.880;2023-12-28T04:24:52;1003.9;;;10.75;100
73306;BME280;61530;51.158;0.880;2023-12-28T04:25:55;1003.9;;;10.8125;100
73306;BME280;61530;51.158;0.880;2023-12-28T04:26:58;1003.85;;;10.8125;100
73306;BME280;61530;51.158;0.880;2023-12-28T04:28:02;1003.91;;;10.8125;100
73306;BME280;61530;51.158;0.880;2023-12-28T04:29:04;1003.82;;;10.75;100
73306;BME280;61530;51.158;0.880;2023-12-28T04:30:11;1003.86;;;10.8125;100
73306;BME280;61530;51.158;0.880;2023-12-28T04:31:10;1003.89;;;10.75;100
73306;BME280;61530;51.158;0.880;2023-12-28T04:32:13;1003.93;;;10.75;100
73306;BME280;61530;51.158;0.880;2023-12-28T04:33:17;1003.85;;;10.8125;100
73306;BME280;61530;51.158;0.880;2023-12-28T04:34:19;1003.79;;;10.8125;100
73306;BME280;61530;51.158;0.880;2023-12-28T04:35:22;1003.79;;;10.8125;100
73306;BME280;61530;51.158;0.880;2023-12-28T04:36:25;1003.65;;;10.75;100
73306;BME280;61530;51.158;0.880;2023-12-28T04:37:28;1003.72;;;10.9375;100
73306;BME280;61530;51.158;0.880;2023-12-28T04:38:32;1003.83;;;10.9375;100
73306;BME280;61530;51.158;0.880;2023-12-28T04:39:34;1003.79;;;11.0;100
73306;BME280;61530;51.158;0.880;2023-12-28T04:40:37;1003.93;;;10.9375;100
73306;BME280;61530;51.158;0.880;2023-12-28T04:41:40;1003.78;;;10.875;100
73306;BME280;61530;51.158;0.880;2023-12-28T04:42:41;1003.85;;;10.8125;100
73306;BME280;61530;51.158;0.880;2023-12-28T04:43:44;1003.9;;;10.875;100
73306;BME280;61530;51.158;0.880;2023-12-28T04:44:47;1003.8;;;10.875;100
73306;BME280;61530;51.158;0.880;2023-12-28T04:45:50;1003.8;;;10.875;100
73306;BME280;61530;51.158;0.880;2023-12-28T04:46:53;1003.87;;;10.875;100
73306;BME280;61530;51.158;0.880;2023-12-28T04:47:55;1003.87;;;10.875;100
73306;BME280;61530;51.158;0.880;2023-12-28T04:48:58;1003.79;;;10.875;100
73306;BME280;61530;51.158;0.880;2023-12-28T04:50:02;1003.91;;;10.875;100
73306;BME280;61530;51.158;0.880;2023-12-28T04:51:05;1003.85;;;10.875;100
73306;BME280;61530;51.158;0.880;2023-12-28T04:52:08;1003.75;;;10.9375;100
73306;BME280;61530;51.158;0.880;2023-12-28T04:53:10;1003.75;;;10.9375;100
73306;BME280;61530;51.158;0.880;2023-12-28T04:54:14;1003.78;;;10.875;100
73306;BME280;61530;51.158;0.880;2023-12-28T04:55:18;1003.84;;;10.875;100
73306;BME280;61530;51.158;0.880;2023-12-28T04:56:20;1003.74;;;10.875;100
73306;BME280;61530;51.158;0.880;2023-12-28T04:57:24;1003.9;;;10.8125;100
73306;BME280;61530;51.158;0.880;2023-12-28T04:58:27;1003.9;;;10.875;100
73306;BME280;61530;51.158;0.880;2023-12-28T04:59:30;1003.87;;;10.875;100
73306;BME280;61530;51.158;0.880;2023-12-28T05:00:33;1003.88;;;10.8125;100
73306;BME280;61530;51.158;0.880;2023-12-28T05:01:41;1003.91;;;10.8125;100
73306;BME280;61530;51.158;0.880;2023-12-28T05:02:39;1003.84;;;10.875;100
73306;BME280;61530;51.158;0.880;2023-12-28T05:03:42;1003.85;;;10.8125;100
73306;BME280;61530;51.158;0.880;2023-12-28T05:04:45;1003.96;;;10.8125;100
73306;BME280;61530;51.158;0.880;2023-12-28T05:05:48;1003.91;;;10.8125;100
73306;BME280;61530;51.158;0.880;2023-12-28T05:06:53;1003.83;;;10.75;100
73306;BME280;61530;51.158;0.880;2023-12-28T05:07:56;1003.92;;;10.875;100
73306;BME280;61530;51.158;0.880;2023-12-28T05:08:59;1003.9;;;10.875;100
73306;BME280;61530;51.158;0.880;2023-12-28T05:10:02;1003.82;;;10.875;100
73306;BME280;61530;51.158;0.880;2023-12-28T05:11:06;1003.9;;;10.8125;100
73306;BME280;61530;51.158;0.880;2023-12-28T05:12:08;1003.86;;;10.8125;100
73306;BME280;61530;51.158;0.880;2023-12-28T05:13:11;1004.0;;;10.9375;100
73306;BME280;61530;51.158;0.880;2023-12-28T05:14:14;1003.82;;;10.875;100
73306;BME280;61530;51.158;0.880;2023-12-28T05:15:17;1003.92;;;10.875;100
73306;BME280;61530;51.158;0.880;2023-12-28T05:16:20;1003.93;;;10.9375;100
73306;BME280;61530;51.158;0.880;2023-12-28T05:17:23;1004.05;;;10.875;100
73306;BME280;61530;51.158;0.880;2023-12-28T05:18:26;1004.02;;;10.875;100
73306;BME280;61530;51.158;0.880;2023-12-28T05:19:29;1003.95;;;10.9375;100
73306;BME280;61530;51.158;0.880;2023-12-28T05:20:32;1003.72;;;10.9375;100
73306;BME280;61530;51.158;0.880;2023-12-28T05:21:35;1003.9;;;10.9375;100
73306;BME280;61530;51.158;0.880;2023-12-28T05:22:38;1004.06;;;10.875;100
73306;BME280;61530;51.158;0.880;2023-12-28T05:23:41;1003.96;;;10.9375;100
73306;BME280;61530;51.158;0.880;2023-12-28T05:24:44;1003.9;;;10.8125;100
73306;BME280;61530;51.158;0.880;2023-12-28T05:25:47;1004.09;;;10.875;100
73306;BME280;61530;51.158;0.880;2023-12-28T05:26:50;1004.03;;;10.8125;100
73306;BME280;61530;51.158;0.880;2023-12-28T05:27:53;1003.93;;;10.8125;100
73306;BME280;61530;51.158;0.880;2023-12-28T05:28:56;1004.08;;;10.875;100
73306;BME280;61530;51.158;0.880;2023-12-28T05:29:59;1004.18;;;10.875;100
73306;BME280;61530;51.158;0.880;2023-12-28T05:31:02;1004.2;;;10.875;100
73306;BME280;61530;51.158;0.880;2023-12-28T05:32:05;1004.09;;;10.8125;100
73306;BME280;61530;51.158;0.880;2023-12-28T05:33:08;1004.15;;;10.875;100
73306;BME280;61530;51.158;0.880;2023-12-28T05:34:11;1004.1;;;10.875;100
73306;BME280;61530;51.158;0.880;2023-12-28T05:35:14;1004.24;;;10.875;100
73306;BME280;61530;51.158;0.880;2023-12-28T05:36:17;1004.18;;;10.875;100
73306;BME280;61530;51.158;0.880;2023-12-28T05:37:20;1004.19;;;10.875;100
73306;BME280;61530;51.158;0.880;2023-12-28T05:38:23;1004.05;;;10.8125;100
73306;BME280;61530;51.158;0.880;2023-12-28T05:39:26;1004.02;;;10.8125;100
73306;BME280;61530;51.158;0.880;2023-12-28T05:40:29;1003.93;;;10.75;100
73306;BME280;61530;51.158;0.880;2023-12-28T05:41:33;1004.09;;;10.75;100